Time;durP1;ratioP1;P1;durP2;ratioP2;P2;SDS_P1;SDS_P2;PMS_P1;PMS_P2;Temp;Humidity;BMP_temperature;BMP_pressure;BME280_temperature;BME280_humidity;BME280_pressure;Samples;Min_cycle;Max_cycle;Signal;HPM_P1;HPM_P2
2022/05/10 00:01:40;;;;;;;5.28;1.80;;;20.30;52.10;;;;;;4485451;31;20120;-66
2022/05/10 00:04:08;;;;;;;3.33;1.55;;;20.30;52.10;;;;;;4498545;31;20225;-66
2022/05/10 00:06:44;;;;;;;3.92;1.65;;;20.30;52.10;;;;;;4498707;31;20144;-66
2022/05/10 00:09:11;;;;;;;5.28;1.60;;;20.30;52.10;;;;;;4499868;31;20191;-67
2022/05/10 00:11:38;;;;;;;3.78;1.77;;;20.30;52.10;;;;;;4514727;31;20277;-66
2022/05/10 00:14:04;;;;;;;6.88;1.80;;;20.30;52.10;;;;;;4513839;31;20148;-68
2022/05/10 00:16:33;;;;;;;5.13;1.67;;;20.30;52.10;;;;;;4514577;31;20258;-66
2022/05/10 00:18:59;;;;;;;3.13;1.45;;;20.30;52.10;;;;;;4513871;31;20136;-66
2022/05/10 00:21:25;;;;;;;4.35;1.73;;;20.20;52.00;;;;;;4514447;31;20136;-66
2022/05/10 00:23:52;;;;;;;7.93;2.03;;;20.20;52.00;;;;;;4501070;31;20132;-66
2022/05/10 00:26:19;;;;;;;6.95;1.70;;;20.20;52.10;;;;;;4513791;31;20197;-66
2022/05/10 00:28:45;;;;;;;4.63;1.50;;;20.20;52.00;;;;;;4514467;31;20116;-66
2022/05/10 00:31:12;;;;;;;3.25;1.40;;;20.20;52.00;;;;;;4500383;31;20136;-66
2022/05/10 00:33:38;;;;;;;3.67;1.50;;;20.20;52.00;;;;;;4514263;31;20136;-66
2022/05/10 00:36:06;;;;;;;6.00;1.50;;;20.20;52.00;;;;;;4513647;31;20126;-66
2022/05/10 00:38:37;;;;;;;5.15;1.95;;;20.20;52.00;;;;;;4514019;31;20151;-66
2022/05/10 00:41:28;;;;;;;4.57;1.52;;;20.20;52.00;;;;;;4514183;31;20113;-66
2022/05/10 00:44:03;;;;;;;4.75;1.55;;;20.20;52.00;;;;;;4514345;31;20593;-66
2022/05/10 00:46:35;;;;;;;3.63;1.50;;;20.20;52.00;;;;;;4515288;31;20187;-66
2022/05/10 00:49:11;;;;;;;4.20;1.58;;;20.20;51.90;;;;;;4513532;31;20178;-66
2022/05/10 00:52:02;;;;;;;4.70;1.48;;;20.20;52.00;;;;;;4514492;31;20618;-66
2022/05/10 00:54:40;;;;;;;3.42;1.45;;;20.20;52.00;;;;;;4514218;31;20254;-66
2022/05/10 00:57:23;;;;;;;4.93;1.52;;;20.20;52.00;;;;;;4513264;31;20135;-66
2022/05/10 01:00:13;;;;;;;3.72;1.40;;;20.20;52.00;;;;;;4513685;31;20239;-66
2022/05/10 01:02:58;;;;;;;5.20;1.58;;;20.10;51.90;;;;;;4514126;31;20116;-66
2022/05/10 01:06:01;;;;;;;2.92;1.50;;;20.10;51.90;;;;;;4513155;31;20496;-65
2022/05/10 01:08:40;;;;;;;3.90;1.40;;;20.10;51.80;;;;;;4513716;31;20146;-66
2022/05/10 01:11:18;;;;;;;4.22;1.55;;;20.10;51.90;;;;;;4514747;31;20167;-66
2022/05/10 01:13:50;;;;;;;4.75;1.65;;;20.10;51.90;;;;;;4512864;31;20160;-66
2022/05/10 01:16:19;;;;;;;3.20;1.30;;;20.10;51.90;;;;;;4513784;31;20128;-66
2022/05/10 01:18:47;;;;;;;2.95;1.80;;;20.10;51.90;;;;;;4514265;31;20136;-66
2022/05/10 01:21:32;;;;;;;2.83;1.25;;;20.10;51.90;;;;;;4500139;31;20282;-66
2022/05/10 01:24:16;;;;;;;2.30;1.17;;;20.10;51.80;;;;;;4513591;31;20128;-66
2022/05/10 01:27:10;;;;;;;3.42;1.42;;;20.10;51.80;;;;;;4512728;31;20131;-65
2022/05/10 01:29:49;;;;;;;4.50;1.53;;;20.10;51.90;;;;;;4514286;31;20120;-66
2022/05/10 01:35:07;;;;;;;3.75;1.40;;;20.10;51.80;;;;;;4513796;31;20205;-66
2022/05/10 01:37:37;;;;;;;2.95;1.30;;;20.10;51.90;;;;;;4514941;31;20136;-66
2022/05/10 01:40:37;;;;;;;3.67;1.38;;;20.10;51.80;;;;;;4512797;31;20120;-66
2022/05/10 01:43:12;;;;;;;5.82;1.40;;;20.10;51.80;;;;;;4512925;31;20152;-66
2022/05/10 01:46:07;;;;;;;4.07;1.55;;;20.00;51.80;;;;;;4513605;31;20183;-66
2022/05/10 01:48:36;;;;;;;2.60;1.15;;;20.00;51.70;;;;;;4512458;31;20282;-66
2022/05/10 01:51:08;;;;;;;3.35;1.00;;;20.00;51.80;;;;;;4513057;31;20148;-66
2022/05/10 01:53:37;;;;;;;2.75;1.33;;;20.00;51.80;;;;;;4512691;31;20185;-66
2022/05/10 01:56:04;;;;;;;3.70;1.35;;;20.00;51.70;;;;;;4512706;31;20202;-66
2022/05/10 01:58:34;;;;;;;2.67;1.30;;;20.00;51.70;;;;;;4512911;31;20245;-65
2022/05/10 02:01:18;;;;;;;2.63;1.08;;;20.00;51.70;;;;;;4513157;31;20162;-66
2022/05/10 02:04:06;;;;;;;2.85;1.10;;;20.00;51.70;;;;;;4509776;31;20137;-66
2022/05/10 02:06:32;;;;;;;3.88;1.27;;;20.00;51.70;;;;;;4496412;31;20361;-66
2022/05/10 02:09:04;;;;;;;3.42;1.20;;;20.00;51.70;;;;;;4496097;31;20209;-66
2022/05/10 02:11:34;;;;;;;3.97;1.38;;;20.00;51.70;;;;;;4496460;31;20608;-66
2022/05/10 02:14:09;;;;;;;4.18;1.30;;;20.00;51.70;;;;;;4496144;31;20308;-66
2022/05/10 02:16:53;;;;;;;1.95;1.02;;;20.00;51.70;;;;;;4495734;31;20168;-66
2022/05/10 02:19:49;;;;;;;2.78;1.13;;;20.00;51.70;;;;;;4495740;31;20187;-66
2022/05/10 02:22:33;;;;;;;2.90;1.30;;;20.00;51.70;;;;;;4494799;31;20253;-65
2022/05/10 02:25:08;;;;;;;2.95;1.20;;;20.00;52.70;;;;;;4498245;31;20148;-69
2022/05/10 02:27:43;;;;;;;1.98;1.27;;;20.00;51.80;;;;;;4496184;31;20117;-65
2022/05/10 02:30:12;;;;;;;3.13;1.23;;;19.90;51.80;;;;;;4496172;31;20140;-64
2022/05/10 02:35:31;;;;;;;3.83;1.27;;;20.00;51.80;;;;;;4495844;31;20105;-66
2022/05/10 02:37:57;;;;;;;1.95;1.00;;;20.00;51.90;;;;;;4495385;31;20143;-66
2022/05/10 02:40:23;;;;;;;1.55;1.10;;;20.00;51.90;;;;;;4482156;31;20132;-66
2022/05/10 02:42:49;;;;;;;3.17;1.20;;;20.00;51.90;;;;;;4496288;31;20604;-66
2022/05/10 02:45:19;;;;;;;2.70;1.30;;;19.90;51.90;;;;;;4496401;31;20347;-66
2022/05/10 02:47:47;;;;;;;2.55;1.30;;;19.90;51.90;;;;;;4483082;31;20124;-66
2022/05/10 02:50:24;;;;;;;4.25;1.30;;;19.90;51.90;;;;;;4497907;31;20151;-66
2022/05/10 02:52:51;;;;;;;1.75;1.13;;;19.90;51.90;;;;;;4495861;31;20137;-66
2022/05/10 02:55:43;;;;;;;4.43;1.40;;;19.90;51.90;;;;;;4496371;32;20144;-66
2022/05/10 02:58:34;;;;;;;2.80;1.00;;;19.90;51.90;;;;;;4497290;32;20294;-66
2022/05/10 03:01:32;;;;;;;1.85;0.95;;;19.90;51.90;;;;;;4495218;32;20162;-66
2022/05/10 03:03:58;;;;;;;2.05;1.00;;;19.90;51.90;;;;;;4496448;31;20259;-66
2022/05/10 03:06:25;;;;;;;1.85;1.05;;;19.90;51.90;;;;;;4496222;32;20711;-66
2022/05/10 03:08:56;;;;;;;2.40;1.10;;;19.90;51.90;;;;;;4483425;32;20147;-66
2022/05/10 03:11:22;;;;;;;2.05;1.13;;;19.90;51.90;;;;;;4497763;31;20137;-66
2022/05/10 03:13:49;;;;;;;2.58;1.10;;;19.90;51.90;;;;;;4495954;31;20194;-66
2022/05/10 03:16:17;;;;;;;3.00;1.00;;;19.90;51.90;;;;;;4500831;31;20214;-66
2022/05/10 03:18:43;;;;;;;2.47;1.10;;;19.90;51.90;;;;;;4498828;31;20128;-66
2022/05/10 03:21:10;;;;;;;2.17;1.02;;;19.80;51.80;;;;;;4499240;31;20152;-66
2022/05/10 03:23:36;;;;;;;2.53;1.25;;;19.80;51.80;;;;;;4499135;31;20136;-66
2022/05/10 03:26:02;;;;;;;1.92;1.02;;;19.80;51.80;;;;;;4485704;31;20132;-66
2022/05/10 03:28:28;;;;;;;3.10;1.33;;;19.90;51.90;;;;;;4499393;31;20599;-66
2022/05/10 03:30:55;;;;;;;1.95;1.17;;;19.80;51.80;;;;;;4485489;31;20108;-66
2022/05/10 03:33:22;;;;;;;2.97;1.50;;;19.80;51.80;;;;;;4499421;31;20146;-66
2022/05/10 03:35:48;;;;;;;3.58;1.30;;;19.80;51.80;;;;;;4498524;31;20128;-66
2022/05/10 03:38:14;;;;;;;2.20;0.85;;;19.80;51.80;;;;;;4486165;31;20151;-66
2022/05/10 03:40:40;;;;;;;3.53;1.10;;;19.80;51.80;;;;;;4485764;31;20136;-66
2022/05/10 03:43:09;;;;;;;1.98;1.10;;;19.80;51.90;;;;;;4498769;31;20140;-66
2022/05/10 03:45:35;;;;;;;2.40;1.20;;;19.80;51.90;;;;;;4499239;31;20125;-66
2022/05/10 03:48:02;;;;;;;2.20;0.90;;;19.80;51.90;;;;;;4498286;31;20139;-66
2022/05/10 03:50:28;;;;;;;2.38;1.08;;;19.80;51.90;;;;;;4499398;31;20133;-66
2022/05/10 03:52:54;;;;;;;1.67;1.05;;;19.80;51.90;;;;;;4498399;31;20139;-66
2022/05/10 03:55:23;;;;;;;1.95;0.90;;;19.80;51.90;;;;;;4485759;31;20255;-66
2022/05/10 03:57:50;;;;;;;2.22;1.02;;;19.80;51.90;;;;;;4498612;31;20567;-66
2022/05/10 04:00:21;;;;;;;3.10;1.48;;;19.80;51.90;;;;;;4498351;31;20136;-66
2022/05/10 04:02:47;;;;;;;3.15;1.27;;;19.80;51.90;;;;;;4500308;31;20187;-66
2022/05/10 04:05:14;;;;;;;1.67;0.90;;;19.80;51.90;;;;;;4497973;31;20286;-66
2022/05/10 04:07:42;;;;;;;3.67;1.33;;;19.80;52.00;;;;;;4498946;31;20176;-66
2022/05/10 04:10:09;;;;;;;1.95;1.05;;;19.80;51.90;;;;;;4499289;31;20661;-65
2022/05/10 04:12:38;;;;;;;1.98;1.13;;;19.80;51.90;;;;;;4498660;31;20190;-66
2022/05/10 04:15:06;;;;;;;3.50;1.20;;;19.80;51.90;;;;;;4485366;31;20191;-66
2022/05/10 04:17:33;;;;;;;2.38;1.00;;;19.80;51.90;;;;;;4498856;31;20266;-66
2022/05/10 04:19:59;;;;;;;2.97;1.20;;;19.70;51.90;;;;;;4484807;31;20125;-66
2022/05/10 04:22:25;;;;;;;2.00;1.00;;;19.70;51.90;;;;;;4496668;31;20120;-66
2022/05/10 04:24:50;;;;;;;1.52;1.02;;;19.70;51.90;;;;;;4498733;31;20152;-66
2022/05/10 04:27:16;;;;;;;2.30;1.00;;;19.70;51.90;;;;;;4496155;31;20116;-66
2022/05/10 04:29:42;;;;;;;1.83;1.13;;;19.70;51.90;;;;;;4483785;31;20135;-66
2022/05/10 04:32:08;;;;;;;1.95;0.88;;;19.70;51.90;;;;;;4497768;31;20117;-66
2022/05/10 04:34:34;;;;;;;2.95;1.17;;;19.70;51.90;;;;;;4484855;31;20152;-66
2022/05/10 04:37:00;;;;;;;2.40;0.75;;;19.70;51.90;;;;;;4498710;31;20263;-65
2022/05/10 04:41:24;;;;;;;2.03;1.00;;;19.70;51.90;;;;;;4497519;31;20462;-66
2022/05/10 04:42:13;;;;;;;1.13;0.80;;;19.70;51.90;;;;;;4498595;31;20144;-66
2022/05/10 04:44:39;;;;;;;1.50;0.93;;;19.70;51.90;;;;;;4497597;31;20549;-66
2022/05/10 04:47:05;;;;;;;1.98;0.90;;;19.70;51.90;;;;;;4484986;31;20141;-66
2022/05/10 04:49:31;;;;;;;2.83;1.10;;;19.70;52.00;;;;;;4497978;31;20151;-66
2022/05/10 04:51:57;;;;;;;1.05;0.65;;;19.70;52.00;;;;;;4498793;31;20120;-66
2022/05/10 04:54:23;;;;;;;2.00;0.75;;;19.70;52.00;;;;;;4485362;31;20767;-66
2022/05/10 04:56:48;;;;;;;1.30;0.70;;;19.70;52.00;;;;;;4497374;31;20129;-66
2022/05/10 04:59:14;;;;;;;1.52;0.95;;;19.70;52.00;;;;;;4498175;31;20138;-66
2022/05/10 05:01:40;;;;;;;1.35;0.85;;;19.70;52.00;;;;;;4484304;31;20136;-65
2022/05/10 05:04:06;;;;;;;2.53;1.00;;;19.70;52.00;;;;;;4497760;31;20275;-66
2022/05/10 05:06:34;;;;;;;1.73;0.80;;;19.70;52.10;;;;;;4484713;31;20275;-65
2022/05/10 05:09:00;;;;;;;2.75;1.00;;;19.70;52.00;;;;;;4484334;31;20262;-66
2022/05/10 05:11:26;;;;;;;2.08;1.10;;;19.70;52.00;;;;;;4485052;31;20519;-66
2022/05/10 05:13:53;;;;;;;1.58;0.70;;;19.70;52.00;;;;;;4496834;31;20190;-66
2022/05/10 05:16:19;;;;;;;1.80;1.00;;;19.70;52.00;;;;;;4497941;31;20189;-65
2022/05/10 05:18:46;;;;;;;1.50;0.93;;;19.70;52.10;;;;;;4497210;31;20144;-66
2022/05/10 05:21:13;;;;;;;1.75;0.90;;;19.70;52.00;;;;;;4497645;31;20338;-66
2022/05/10 05:23:38;;;;;;;0.77;0.70;;;19.70;52.00;;;;;;4497508;31;20137;-66
2022/05/10 05:26:05;;;;;;;1.52;0.90;;;19.70;52.00;;;;;;4497170;31;20136;-66
2022/05/10 05:28:31;;;;;;;2.17;0.90;;;19.70;52.00;;;;;;4498751;31;20178;-66
2022/05/10 05:30:58;;;;;;;2.13;1.05;;;19.70;52.10;;;;;;4496739;31;20148;-66
2022/05/10 05:33:24;;;;;;;1.23;0.90;;;19.70;52.00;;;;;;4497560;31;20163;-66
2022/05/10 05:35:50;;;;;;;1.63;0.90;;;19.60;52.00;;;;;;4483801;31;20255;-66
2022/05/10 05:38:16;;;;;;;1.33;0.88;;;19.60;51.90;;;;;;4497457;31;20186;-66
2022/05/10 05:40:42;;;;;;;1.52;0.80;;;19.60;52.00;;;;;;4484246;31;20149;-66
2022/05/10 05:43:15;;;;;;;1.10;0.68;;;19.60;52.00;;;;;;4483689;31;20163;-66
2022/05/10 05:45:40;;;;;;;1.25;0.80;;;19.60;52.00;;;;;;4497753;31;20143;-66
2022/05/10 05:48:06;;;;;;;2.75;1.00;;;19.60;52.00;;;;;;4483524;31;20137;-66
2022/05/10 05:50:32;;;;;;;2.28;0.98;;;19.60;52.00;;;;;;4497427;31;20144;-66
2022/05/10 05:52:59;;;;;;;1.20;0.70;;;19.60;52.00;;;;;;4483632;31;20117;-66
2022/05/10 05:55:25;;;;;;;1.63;1.00;;;19.60;52.00;;;;;;4497059;31;20121;-66
2022/05/10 05:57:51;;;;;;;1.65;0.98;;;19.60;52.00;;;;;;4483639;31;20192;-65
2022/05/10 06:00:20;;;;;;;1.15;0.90;;;19.60;52.00;;;;;;4496554;31;20184;-66
2022/05/10 06:02:46;;;;;;;1.63;0.85;;;19.60;52.00;;;;;;4498499;31;20203;-66
2022/05/10 06:05:13;;;;;;;2.72;0.95;;;19.60;52.00;;;;;;4483110;31;20153;-66
2022/05/10 06:07:39;;;;;;;1.30;0.82;;;19.60;52.00;;;;;;4497132;31;20128;-66
2022/05/10 06:10:07;;;;;;;1.95;0.80;;;19.60;52.00;;;;;;4483475;31;20156;-66
2022/05/10 06:12:33;;;;;;;1.73;0.80;;;19.60;52.00;;;;;;4496889;31;20132;-66
2022/05/10 06:14:59;;;;;;;1.77;1.02;;;19.60;52.00;;;;;;4496430;31;20147;-66
2022/05/10 06:17:25;;;;;;;1.52;1.13;;;19.60;52.00;;;;;;4496404;31;20137;-66
2022/05/10 06:19:52;;;;;;;2.45;1.00;;;19.60;52.00;;;;;;4497239;31;20710;-66
2022/05/10 06:22:17;;;;;;;1.10;0.73;;;19.60;52.00;;;;;;4482920;31;20250;-66
2022/05/10 06:24:43;;;;;;;1.33;0.82;;;19.60;52.00;;;;;;4496960;31;20294;-66
2022/05/10 06:27:16;;;;;;;2.47;1.10;;;19.60;52.00;;;;;;4483109;31;20133;-66
2022/05/10 06:29:43;;;;;;;1.88;1.00;;;19.60;52.00;;;;;;4483255;31;20128;-66
2022/05/10 06:32:11;;;;;;;1.52;0.85;;;19.60;52.00;;;;;;4483419;31;20610;-66
2022/05/10 06:34:40;;;;;;;2.47;0.77;;;19.60;52.00;;;;;;4497089;31;20160;-66
2022/05/10 06:38:16;;;;;;;1.83;1.00;;;19.60;52.00;;;;;;4498088;31;20131;-66
2022/05/10 06:39:51;;;;;;;1.40;0.70;;;19.60;52.00;;;;;;4496228;31;20221;-66
2022/05/10 06:42:24;;;;;;;0.80;0.80;;;19.60;52.00;;;;;;4496555;31;20525;-65
2022/05/10 06:44:50;;;;;;;1.70;1.00;;;19.70;52.10;;;;;;4483443;31;20147;-65
2022/05/10 06:47:16;;;;;;;2.85;1.08;;;19.70;52.10;;;;;;4496075;31;20124;-65
2022/05/10 06:49:42;;;;;;;2.20;0.85;;;19.70;52.10;;;;;;4483297;31;20155;-65
2022/05/10 06:52:08;;;;;;;3.65;1.30;;;19.70;52.10;;;;;;4482796;31;20159;-65
2022/05/10 06:54:34;;;;;;;3.97;1.35;;;19.70;52.10;;;;;;4483557;32;20120;-65
2022/05/10 06:57:00;;;;;;;2.83;1.70;;;19.80;52.20;;;;;;4482870;32;20116;-64
2022/05/10 06:59:26;;;;;;;4.88;2.30;;;19.80;53.20;;;;;;4496166;32;20187;-64
2022/05/10 07:01:53;;;;;;;4.32;2.10;;;19.80;52.50;;;;;;4495955;32;20278;-64
2022/05/10 07:04:19;;;;;;;3.20;1.80;;;19.80;52.60;;;;;;4483145;32;20112;-65
2022/05/10 07:06:45;;;;;;;4.47;1.77;;;19.80;52.70;;;;;;4483354;32;20145;-65
2022/05/10 07:09:10;;;;;;;6.60;2.83;;;19.80;52.70;;;;;;4482635;32;20129;-63
2022/05/10 07:11:36;;;;;;;5.43;2.05;;;19.80;52.80;;;;;;4483395;32;20129;-65
2022/05/10 07:14:02;;;;;;;7.55;3.50;;;19.80;52.70;;;;;;4495651;32;20160;-64
2022/05/10 07:16:28;;;;;;;7.32;2.70;;;19.80;52.80;;;;;;4496453;32;20144;-64
2022/05/10 07:18:55;;;;;;;6.70;2.50;;;19.80;52.70;;;;;;4486586;31;20124;-65
2022/05/10 07:21:22;;;;;;;5.47;2.30;;;19.80;52.90;;;;;;4512873;31;20132;-65
2022/05/10 07:23:48;;;;;;;3.72;2.25;;;19.90;53.00;;;;;;4499245;31;20301;-65
2022/05/10 07:26:14;;;;;;;5.38;2.28;;;19.80;52.90;;;;;;4486802;31;20132;-65
2022/05/10 07:28:40;;;;;;;4.63;2.60;;;19.90;52.90;;;;;;4496214;31;20129;-64
2022/05/10 07:31:06;;;;;;;6.35;2.72;;;19.80;52.90;;;;;;4496917;32;20129;-65
2022/05/10 07:33:32;;;;;;;6.05;2.80;;;19.90;53.00;;;;;;4483155;32;20140;-65
2022/05/10 07:38:43;;;;;;;5.43;2.58;;;19.90;53.00;;;;;;4496039;32;20125;-65
2022/05/10 07:41:11;;;;;;;6.47;2.97;;;19.90;53.10;;;;;;4497408;31;20195;-66
2022/05/10 07:43:38;;;;;;;4.18;2.72;;;19.90;53.20;;;;;;4495170;32;20262;-65
2022/05/10 07:46:05;;;;;;;7.22;2.75;;;19.90;53.40;;;;;;4495904;31;20159;-65
2022/05/10 07:48:31;;;;;;;4.28;2.50;;;19.90;53.50;;;;;;4496279;31;20509;-66
2022/05/10 07:50:59;;;;;;;8.00;2.70;;;19.90;53.50;;;;;;4512287;31;20143;-65
2022/05/10 07:53:25;;;;;;;6.95;2.58;;;19.90;53.50;;;;;;4511492;31;20128;-66
2022/05/10 07:55:51;;;;;;;7.60;2.88;;;19.90;54.40;;;;;;4488919;31;28716;-66
2022/05/10 07:58:17;;;;;;;9.82;2.70;;;19.90;53.60;;;;;;4510812;31;20113;-65
2022/05/10 08:00:43;;;;;;;6.13;3.03;;;19.90;53.60;;;;;;4497132;31;20142;-65
2022/05/10 08:03:19;;;;;;;7.93;3.17;;;19.90;53.70;;;;;;4515230;31;20143;-66
2022/05/10 08:05:45;;;;;;;9.50;2.70;;;19.90;53.70;;;;;;4488844;31;53637;-66
2022/05/10 08:08:12;;;;;;;6.88;2.95;;;19.90;53.70;;;;;;4513598;31;20120;-66
2022/05/10 08:10:42;;;;;;;7.32;2.65;;;19.90;53.60;;;;;;4508592;31;20144;-66
2022/05/10 08:13:13;;;;;;;8.27;3.08;;;19.90;53.70;;;;;;4512509;31;20139;-66
2022/05/10 08:15:40;;;;;;;5.15;3.20;;;19.90;53.80;;;;;;4513674;31;20282;-66
2022/05/10 08:18:07;;;;;;;4.43;2.67;;;19.90;53.80;;;;;;4500073;31;20147;-66
2022/05/10 08:20:33;;;;;;;6.28;2.80;;;19.90;53.80;;;;;;4514269;31;20492;-65
2022/05/10 08:23:01;;;;;;;6.93;2.70;;;19.90;53.80;;;;;;4500620;31;20132;-66
2022/05/10 08:25:27;;;;;;;3.95;2.60;;;19.90;53.90;;;;;;4513632;31;20593;-66
2022/05/10 08:27:53;;;;;;;4.93;2.50;;;19.90;53.90;;;;;;4500934;31;20128;-66
2022/05/10 08:30:25;;;;;;;2.97;1.98;;;19.90;53.90;;;;;;4513160;31;20132;-67
2022/05/10 08:32:51;;;;;;;5.97;2.63;;;19.90;54.00;;;;;;4500997;31;20286;-67
2022/05/10 08:35:18;;;;;;;5.22;2.30;;;19.90;54.10;;;;;;4499661;31;20128;-66
2022/05/10 08:37:44;;;;;;;6.38;2.38;;;19.90;54.10;;;;;;4500517;31;20163;-66
2022/05/10 08:40:32;;;;;;;3.47;2.20;;;19.90;54.10;;;;;;4500028;31;20124;-66
2022/05/10 08:43:03;;;;;;;4.70;2.40;;;19.90;54.00;;;;;;4514514;31;20125;-66
2022/05/10 08:45:29;;;;;;;5.85;2.30;;;19.90;54.10;;;;;;4527037;31;20128;-66
2022/05/10 08:47:56;;;;;;;4.00;2.20;;;19.90;54.10;;;;;;4500011;31;20136;-66
2022/05/10 08:50:22;;;;;;;3.75;2.13;;;19.90;54.10;;;;;;4513314;31;20139;-66
2022/05/10 08:52:51;;;;;;;4.18;2.30;;;19.90;54.10;;;;;;4513090;31;20214;-66
2022/05/10 08:55:23;;;;;;;6.63;2.72;;;19.90;54.10;;;;;;4512998;31;20274;-66
2022/05/10 08:57:52;;;;;;;5.75;2.50;;;19.90;54.10;;;;;;4498733;31;20220;-65
2022/05/10 09:00:37;;;;;;;6.32;2.35;;;19.90;54.10;;;;;;4496539;31;20125;-65
2022/05/10 09:03:27;;;;;;;6.85;2.60;;;19.90;54.10;;;;;;4513003;31;20289;-64
2022/05/10 09:05:59;;;;;;;4.28;2.50;;;19.90;55.20;;;;;;4484882;31;35904;-64
2022/05/10 09:08:45;;;;;;;3.30;2.22;;;19.90;54.30;;;;;;4508143;31;20153;-66
2022/05/10 09:11:14;;;;;;;6.50;2.42;;;20.00;54.40;;;;;;4497444;31;20199;-65
2022/05/10 09:13:42;;;;;;;6.03;2.85;;;20.00;54.40;;;;;;4496903;31;20155;-65
2022/05/10 09:16:10;;;;;;;8.10;3.75;;;20.00;54.40;;;;;;4498081;31;20173;-64
2022/05/10 09:18:51;;;;;;;7.43;3.03;;;20.00;54.30;;;;;;4496583;31;20167;-64
2022/05/10 09:21:24;;;;;;;12.52;2.90;;;20.00;54.30;;;;;;4498329;31;20315;-64
2022/05/10 09:23:59;;;;;;;7.53;2.97;;;20.00;54.50;;;;;;4498370;31;20198;-64
2022/05/10 09:26:36;;;;;;;6.90;3.10;;;20.10;54.40;;;;;;4510585;31;20151;-64
2022/05/10 09:29:39;;;;;;;8.73;3.33;;;20.10;54.40;;;;;;4497071;31;20137;-64
2022/05/10 09:35:12;;;;;;;5.70;3.10;;;20.10;54.40;;;;;;4511655;31;20820;-64
2022/05/10 09:37:49;;;;;;;10.15;3.22;;;20.10;54.40;;;;;;4511859;31;20155;-65
2022/05/10 09:40:18;;;;;;;6.65;3.20;;;20.20;54.40;;;;;;4502042;31;20167;-64
2022/05/10 09:42:47;;;;;;;7.93;3.10;;;20.20;54.30;;;;;;4499700;31;20151;-64
2022/05/10 09:45:14;;;;;;;10.95;3.00;;;20.20;54.20;;;;;;4497508;31;20595;-64
2022/05/10 09:48:00;;;;;;;6.63;2.95;;;20.20;54.10;;;;;;4496916;31;20137;-64
2022/05/10 09:50:31;;;;;;;6.70;2.35;;;20.30;54.10;;;;;;4497831;31;20198;-64
2022/05/10 09:53:11;;;;;;;6.25;2.67;;;20.30;54.00;;;;;;4497117;31;20554;-64
2022/05/10 09:55:39;;;;;;;7.65;2.80;;;20.30;54.20;;;;;;4497016;31;20372;-64
2022/05/10 09:58:19;;;;;;;8.25;3.03;;;20.30;54.00;;;;;;4497557;31;20135;-63
2022/05/10 10:00:52;;;;;;;8.85;3.35;;;20.40;54.20;;;;;;4510834;31;20269;-64
2022/05/10 10:03:39;;;;;;;6.00;3.17;;;20.40;54.00;;;;;;4513278;31;20191;-64
2022/05/10 10:06:21;;;;;;;6.35;2.83;;;20.40;54.10;;;;;;4483142;31;44373;-64
2022/05/10 10:08:50;;;;;;;7.82;3.00;;;20.40;54.00;;;;;;4508550;31;20214;-64
2022/05/10 10:11:22;;;;;;;9.02;2.85;;;20.40;54.00;;;;;;4507387;31;20145;-64
2022/05/10 10:13:57;;;;;;;13.60;2.80;;;20.40;54.10;;;;;;4496244;31;20255;-64
2022/05/10 10:16:35;;;;;;;6.68;2.95;;;20.40;54.90;;;;;;4497672;31;20132;-64
2022/05/10 10:19:01;;;;;;;12.18;3.13;;;20.40;54.00;;;;;;4497661;31;20125;-64
2022/05/10 10:22:00;;;;;;;12.20;3.15;;;20.40;53.90;;;;;;4497598;31;20127;-64
2022/05/10 10:25:20;;;;;;;6.72;2.75;;;20.40;54.00;;;;;;4506446;31;20147;-64
2022/05/10 10:27:51;;;;;;;8.50;3.60;;;20.40;54.10;;;;;;4488290;31;20178;-64
2022/05/10 10:31:05;;;;;;;8.23;3.03;;;20.40;54.00;;;;;;4512137;31;20237;-64
2022/05/10 10:33:41;;;;;;;7.65;2.78;;;20.40;54.10;;;;;;4479651;32;20145;-64
2022/05/10 10:36:37;;;;;;;7.15;3.53;;;20.40;54.10;;;;;;4510575;31;20696;-64
2022/05/10 10:39:34;;;;;;;10.32;3.38;;;20.40;54.30;;;;;;4510076;31;20147;-64
2022/05/10 10:42:10;;;;;;;8.60;3.60;;;20.40;54.40;;;;;;4499894;31;20132;-64
2022/05/10 10:44:40;;;;;;;14.55;3.50;;;20.40;54.30;;;;;;4494570;31;20209;-64
2022/05/10 10:47:24;;;;;;;6.68;3.10;;;20.50;54.30;;;;;;4509850;31;20120;-64
2022/05/10 10:50:13;;;;;;;6.50;3.33;;;20.50;54.30;;;;;;4513452;31;20471;-64
2022/05/10 10:52:39;;;;;;;12.88;3.33;;;20.50;54.40;;;;;;4511023;31;20185;-64
2022/05/10 10:55:07;;;;;;;8.13;3.05;;;20.50;54.30;;;;;;4512757;31;20143;-64
2022/05/10 10:57:42;;;;;;;7.25;3.03;;;20.50;54.40;;;;;;4512370;31;20117;-63
2022/05/10 11:00:11;;;;;;;9.80;3.30;;;20.50;54.40;;;;;;4500775;31;20274;-64
2022/05/10 11:03:00;;;;;;;6.15;2.80;;;20.50;54.40;;;;;;4497271;31;20120;-64
2022/05/10 11:05:47;;;;;;;7.78;3.22;;;20.50;54.40;;;;;;4496219;31;20201;-64
2022/05/10 11:08:18;;;;;;;5.55;2.90;;;20.50;54.30;;;;;;4511581;31;20147;-64
2022/05/10 11:11:21;;;;;;;8.20;2.80;;;20.50;54.20;;;;;;4512662;31;20433;-64
2022/05/10 11:14:05;;;;;;;6.78;2.65;;;20.50;54.10;;;;;;4511984;31;20132;-64
2022/05/10 11:16:42;;;;;;;8.35;2.90;;;20.50;54.10;;;;;;4506347;31;20190;-64
2022/05/10 11:19:24;;;;;;;8.27;3.10;;;20.50;54.10;;;;;;4510871;31;20195;-64
2022/05/10 11:22:16;;;;;;;5.47;2.53;;;20.50;54.20;;;;;;4510397;31;20124;-64
2022/05/10 11:25:07;;;;;;;7.97;2.65;;;20.50;54.20;;;;;;4513148;31;20720;-65
2022/05/10 11:27:44;;;;;;;8.43;2.85;;;20.50;54.20;;;;;;4511884;31;20104;-64
2022/05/10 11:30:20;;;;;;;8.82;3.17;;;20.50;54.20;;;;;;4512365;31;20202;-64
2022/05/10 11:33:11;;;;;;;5.85;2.78;;;20.50;54.10;;;;;;4512181;31;20490;-64
2022/05/10 11:36:09;;;;;;;4.85;2.70;;;20.50;54.10;;;;;;4513938;31;20128;-64
2022/05/10 11:38:58;;;;;;;9.18;3.03;;;20.50;54.10;;;;;;4505235;31;20135;-64
2022/05/10 11:41:41;;;;;;;8.88;2.67;;;20.50;54.10;;;;;;4508771;31;20125;-64
2022/05/10 11:44:20;;;;;;;11.02;2.78;;;20.50;54.00;;;;;;4515459;31;20145;-64
2022/05/10 11:47:17;;;;;;;8.27;3.15;;;20.50;54.00;;;;;;4515049;31;20124;-64
2022/05/10 11:49:46;;;;;;;10.18;2.90;;;20.50;54.10;;;;;;4515389;31;20139;-64
2022/05/10 11:52:27;;;;;;;6.95;3.08;;;20.50;54.10;;;;;;4514930;31;20145;-65
2022/05/10 11:55:11;;;;;;;5.03;3.22;;;20.50;54.10;;;;;;4515927;31;20196;-64
2022/05/10 11:57:38;;;;;;;7.93;3.40;;;20.50;54.10;;;;;;4499435;31;20660;-64
2022/05/10 12:00:26;;;;;;;10.13;3.25;;;20.60;54.20;;;;;;4498786;31;20132;-64
2022/05/10 12:02:56;;;;;;;5.78;3.22;;;20.60;54.40;;;;;;4514322;31;20145;-64
2022/05/10 12:05:30;;;;;;;6.72;3.30;;;20.60;54.30;;;;;;4515107;31;20266;-64
2022/05/10 12:07:58;;;;;;;8.48;3.47;;;20.60;54.30;;;;;;4514713;31;21040;-64
2022/05/10 12:10:40;;;;;;;14.20;3.70;;;20.60;54.40;;;;;;4508902;31;20143;-64
2022/05/10 12:22:08;;;;;;;13.73;3.88;;;20.70;54.70;;;;;;4513385;31;20144;-63
2022/05/10 12:24:44;;;;;;;7.35;3.20;;;20.70;54.60;;;;;;4514499;31;20128;-63
2022/05/10 12:27:10;;;;;;;12.20;3.50;;;20.70;54.60;;;;;;4500453;31;20140;-63
2022/05/10 12:29:39;;;;;;;6.93;2.90;;;20.70;54.60;;;;;;4513009;31;20505;-63
2022/05/10 12:32:36;;;;;;;8.52;2.97;;;20.70;54.50;;;;;;4512812;31;20167;-63
2022/05/10 12:35:04;;;;;;;6.18;2.83;;;20.70;54.50;;;;;;4512069;31;20170;-64
2022/05/10 12:37:38;;;;;;;10.07;2.92;;;20.80;54.50;;;;;;4514429;31;20457;-65
2022/05/10 12:40:10;;;;;;;5.78;2.67;;;20.80;54.50;;;;;;4513825;31;20135;-64
2022/05/10 12:43:04;;;;;;;3.58;2.58;;;20.80;54.40;;;;;;4511071;31;20158;-64
2022/05/10 12:45:51;;;;;;;9.00;2.83;;;20.80;54.40;;;;;;4514406;31;20178;-64
2022/05/10 12:48:43;;;;;;;7.20;2.50;;;20.80;54.30;;;;;;4511962;31;20190;-63
2022/05/10 12:51:22;;;;;;;8.23;2.55;;;20.80;54.20;;;;;;4514035;31;20147;-63
2022/05/10 12:53:51;;;;;;;7.10;2.65;;;20.80;54.20;;;;;;4514384;31;20171;-63
2022/05/10 12:56:25;;;;;;;7.75;2.75;;;20.80;54.00;;;;;;4512813;31;20266;-64
2022/05/10 12:59:09;;;;;;;9.10;2.50;;;20.80;54.00;;;;;;4514476;31;20136;-64
2022/05/10 13:01:36;;;;;;;9.43;2.40;;;20.80;53.90;;;;;;4512962;31;20135;-63
2022/05/10 13:04:20;;;;;;;9.57;2.60;;;20.80;53.80;;;;;;4499955;31;20271;-63
2022/05/10 13:07:14;;;;;;;5.63;2.28;;;20.80;53.60;;;;;;4514710;31;20144;-63
2022/05/10 13:09:49;;;;;;;;;;;20.80;53.30;;;;;;4513309;31;20120;-65
2022/05/10 13:12:19;;;;;;;4.30;2.10;;;20.80;53.20;;;;;;4498653;31;20460;-64
2022/05/10 13:14:52;;;;;;;10.85;2.13;;;20.70;53.40;;;;;;4508415;31;20543;-64
2022/05/10 13:17:22;;;;;;;5.63;2.10;;;20.80;53.30;;;;;;4512549;31;20148;-64
2022/05/10 13:19:48;;;;;;;6.10;2.20;;;20.70;53.10;;;;;;4513377;31;20293;-65
2022/05/10 13:22:18;;;;;;;2.78;1.63;;;20.80;53.00;;;;;;4514163;31;20136;-64
2022/05/10 13:24:47;;;;;;;10.77;2.30;;;20.80;52.80;;;;;;4514810;31;20301;-64
2022/05/10 13:27:41;;;;;;;5.38;1.90;;;20.70;53.50;;;;;;4514153;31;20140;-64
2022/05/10 13:30:20;;;;;;;4.25;1.80;;;20.70;52.50;;;;;;4513891;31;20131;-64
2022/05/10 13:32:49;;;;;;;7.43;1.88;;;20.70;52.20;;;;;;4511079;31;20198;-65
2022/05/10 13:35:24;;;;;;;4.80;2.00;;;20.70;52.20;;;;;;4512990;31;20185;-65